Home > Products > Valid Products > TAF

000
FTUS44 KTSA 281720
TAFFYV
TAF
KFYV 281720Z 2818/2918 17011KT P6SM BKN250
     FM290200 00000KT P6SM BKN120
      TEMPO 2909/2913 5SM -TSRA BKN050CB
     FM291500 19007KT P6SM BKN150=



000
FTUS44 KTSA 281720
TAFTUL
TAF
KTUL 281720Z 2818/2918 17012KT P6SM VCSH BKN150
     FM290100 16009KT P6SM BKN120
      TEMPO 2905/2909 5SM -TSRA BKN050CB
     FM291500 23008KT P6SM SCT050 BKN150=



000
FTUS44 KTSA 281720
TAFRVS
TAF
KRVS 281720Z 2818/2918 16007KT P6SM VCSH BKN150
     FM290100 16006KT P6SM BKN120
      TEMPO 2905/2909 5SM -TSRA BKN050CB
     FM291500 20006KT P6SM BKN150=



000
FTUS44 KTSA 281720
TAFRVS
TAF
KRVS 281720Z 2818/2918 16007KT P6SM VCSH BKN150
     FM290100 16006KT P6SM BKN120
      TEMPO 2905/2909 5SM -TSRA BKN050CB
     FM291500 20006KT P6SM BKN150=



000
FTUS44 KTSA 281720
TAFFYV
TAF
KFYV 281720Z 2818/2918 17011KT P6SM BKN250
     FM290200 00000KT P6SM BKN120
      TEMPO 2909/2913 5SM -TSRA BKN050CB
     FM291500 19007KT P6SM BKN150=



000
FTUS44 KTSA 281720
TAFFSM
TAF
KFSM 281720Z 2818/2918 11004KT P6SM SKC
     FM290300 07005KT P6SM BKN120 PROB30 2908/2914 5SM -TSRA
      BKN050CB
     FM291500 09008KT P6SM BKN150=



000
FTUS44 KTSA 281720
TAFFSM
TAF
KFSM 281720Z 2818/2918 11004KT P6SM SKC
     FM290300 07005KT P6SM BKN120 PROB30 2908/2914 5SM -TSRA
      BKN050CB
     FM291500 09008KT P6SM BKN150=



000
FTUS44 KTSA 281720
TAFMLC
TAF
KMLC 281720Z 2818/2918 16005KT P6SM BKN250
     FM290300 14005KT P6SM BKN120 PROB30 2906/2912 5SM -TSRA
      BKN050CB
     FM291500 20007KT P6SM BKN150=



000
FTUS44 KTSA 281720
TAFXNA
TAF
KXNA 281720Z 2818/2918 18008KT P6SM BKN250
     FM290200 16003KT P6SM BKN120
      TEMPO 2909/2913 5SM -TSRA BKN050CB
     FM291500 20008KT P6SM BKN250=



000
FTUS44 KTSA 281720
TAFMLC
TAF
KMLC 281720Z 2818/2918 16005KT P6SM BKN250
     FM290300 14005KT P6SM BKN120 PROB30 2906/2912 5SM -TSRA
      BKN050CB
     FM291500 20007KT P6SM BKN150=



000
FTUS44 KTSA 281720
TAFTUL
TAF
KTUL 281720Z 2818/2918 17012KT P6SM VCSH BKN150
     FM290100 16009KT P6SM BKN120
      TEMPO 2905/2909 5SM -TSRA BKN050CB
     FM291500 23008KT P6SM SCT050 BKN150=



000
FTUS44 KTSA 281720
TAFXNA
TAF
KXNA 281720Z 2818/2918 18008KT P6SM BKN250
     FM290200 16003KT P6SM BKN120
      TEMPO 2909/2913 5SM -TSRA BKN050CB
     FM291500 20008KT P6SM BKN250=



000
FTUS44 KTSA 281140
TAFRVS
TAF
KRVS 281140Z 2812/2912 17011KT P6SM VCSH BKN120
     FM281800 17011KT P6SM BKN120
     FM290100 16006KT P6SM BKN120
      TEMPO 2905/2909 5SM -TSRA BKN050CB=



000
FTUS44 KTSA 281140
TAFTUL
TAF
KTUL 281140Z 2812/2912 17012KT P6SM VCSH BKN120
     FM281800 17012KT P6SM BKN120
     FM290100 16009KT P6SM BKN120
      TEMPO 2905/2909 5SM -TSRA BKN050CB=



000
FTUS44 KTSA 281140
TAFFSM
TAF
KFSM 281140Z 2812/2912 09006KT P6SM SCT150 BKN250
     FM290300 07005KT P6SM BKN120 PROB30 2906/2912 5SM -TSRA
      BKN050CB=



000
FTUS44 KTSA 281140
TAFFYV
TAF
KFYV 281140Z 2812/2912 17008KT P6SM SCT120 BKN250
     FM290200 00000KT P6SM BKN120
      TEMPO 2908/2912 5SM -TSRA BKN050CB=



000
FTUS44 KTSA 281140
TAFXNA
TAF
KXNA 281140Z 2812/2912 17009KT P6SM SCT120 BKN250
     FM290200 16003KT P6SM BKN120
      TEMPO 2908/2912 5SM -TSRA BKN050CB=



000
FTUS44 KTSA 281140
TAFFYV
TAF
KFYV 281140Z 2812/2912 17008KT P6SM SCT120 BKN250
     FM290200 00000KT P6SM BKN120
      TEMPO 2908/2912 5SM -TSRA BKN050CB=



000
FTUS44 KTSA 281140
TAFMLC
TAF
KMLC 281140Z 2812/2912 17007KT P6SM SCT150 SCT250
     FM290300 14005KT P6SM BKN120 PROB30 2906/2912 5SM -TSRA
      BKN050CB=



000
FTUS44 KTSA 281140
TAFRVS
TAF
KRVS 281140Z 2812/2912 17011KT P6SM VCSH BKN120
     FM281800 17011KT P6SM BKN120
     FM290100 16006KT P6SM BKN120
      TEMPO 2905/2909 5SM -TSRA BKN050CB=



000
FTUS44 KTSA 281140
TAFTUL
TAF
KTUL 281140Z 2812/2912 17012KT P6SM VCSH BKN120
     FM281800 17012KT P6SM BKN120
     FM290100 16009KT P6SM BKN120
      TEMPO 2905/2909 5SM -TSRA BKN050CB=



000
FTUS44 KTSA 281140
TAFXNA
TAF
KXNA 281140Z 2812/2912 17009KT P6SM SCT120 BKN250
     FM290200 16003KT P6SM BKN120
      TEMPO 2908/2912 5SM -TSRA BKN050CB=



000
FTUS44 KTSA 281140
TAFMLC
TAF
KMLC 281140Z 2812/2912 17007KT P6SM SCT150 SCT250
     FM290300 14005KT P6SM BKN120 PROB30 2906/2912 5SM -TSRA
      BKN050CB=



000
FTUS44 KTSA 281140
TAFFSM
TAF
KFSM 281140Z 2812/2912 09006KT P6SM SCT150 BKN250
     FM290300 07005KT P6SM BKN120 PROB30 2906/2912 5SM -TSRA
      BKN050CB=



000
FTUS44 KTSA 280520
TAFMLC
TAF
KMLC 280520Z 2806/2906 13005KT P6SM SCT250
     FM281500 18010G17KT P6SM SCT050 SCT250
     FM290000 17007KT P6SM SCT080 BKN250=



000
FTUS44 KTSA 280520
TAFFSM
TAF
KFSM 280520Z 2806/2906 09005KT P6SM SCT250
     FM281800 13008KT P6SM SCT250
     FM290100 09004KT P6SM SCT080 BKN250=



000
FTUS44 KTSA 280520
TAFRVS
TAF
KRVS 280520Z 2806/2906 17005KT P6SM SCT150
     FM281500 18012G18KT P6SM SCT050 BKN250
     FM282300 18008KT P6SM VCTS BKN050CB PROB30 2900/2906 5SM -TSRA
      BKN040CB=



000
FTUS44 KTSA 280520
TAFTUL
TAF
KTUL 280520Z 2806/2906 16009KT P6SM SCT150
     FM281500 17012G20KT P6SM SCT050 BKN250
     FM282300 18012KT P6SM VCTS BKN050CB PROB30 2900/2906 5SM -TSRA
      BKN040CB=



000
FTUS44 KTSA 280520
TAFFYV
TAF
KFYV 280520Z 2806/2906 VRB03KT P6SM SCT250
     FM281500 16010KT P6SM SCT250
     FM290000 18005KT P6SM SCT080 BKN250=



000
FTUS44 KTSA 280520
TAFXNA
TAF
KXNA 280520Z 2806/2906 13005KT P6SM SCT250
     FM281500 16010KT P6SM SCT250
     FM290000 16005KT P6SM SCT080 BKN250=



000
FTUS44 KTSA 280520
TAFFYV
TAF
KFYV 280520Z 2806/2906 VRB03KT P6SM SCT250
     FM281500 16010KT P6SM SCT250
     FM290000 18005KT P6SM SCT080 BKN250=



000
FTUS44 KTSA 280520
TAFMLC
TAF
KMLC 280520Z 2806/2906 13005KT P6SM SCT250
     FM281500 18010G17KT P6SM SCT050 SCT250
     FM290000 17007KT P6SM SCT080 BKN250=



000
FTUS44 KTSA 280520
TAFTUL
TAF
KTUL 280520Z 2806/2906 16009KT P6SM SCT150
     FM281500 17012G20KT P6SM SCT050 BKN250
     FM282300 18012KT P6SM VCTS BKN050CB PROB30 2900/2906 5SM -TSRA
      BKN040CB=



000
FTUS44 KTSA 280520
TAFRVS
TAF
KRVS 280520Z 2806/2906 17005KT P6SM SCT150
     FM281500 18012G18KT P6SM SCT050 BKN250
     FM282300 18008KT P6SM VCTS BKN050CB PROB30 2900/2906 5SM -TSRA
      BKN040CB=



000
FTUS44 KTSA 280520
TAFFSM
TAF
KFSM 280520Z 2806/2906 09005KT P6SM SCT250
     FM281800 13008KT P6SM SCT250
     FM290100 09004KT P6SM SCT080 BKN250=



000
FTUS44 KTSA 280520
TAFXNA
TAF
KXNA 280520Z 2806/2906 13005KT P6SM SCT250
     FM281500 16010KT P6SM SCT250
     FM290000 16005KT P6SM SCT080 BKN250=



000
FTUS44 KTSA 272320
TAFTUL
TAF
KTUL 272320Z 2800/2824 15007KT P6SM SCT150
     FM281500 17010G20KT P6SM SCT050 BKN250=



000
FTUS44 KTSA 272320
TAFTUL
TAF
KTUL 272320Z 2800/2824 15007KT P6SM SCT150
     FM281500 17010G20KT P6SM SCT050 BKN250=



000
FTUS44 KTSA 272320
TAFFYV
TAF
KFYV 272320Z 2800/2824 16005KT P6SM SCT150
     FM281500 16010KT P6SM SCT250=



000
FTUS44 KTSA 272320
TAFFYV
TAF
KFYV 272320Z 2800/2824 16005KT P6SM SCT150
     FM281500 16010KT P6SM SCT250=



000
FTUS44 KTSA 272320
TAFFSM
TAF
KFSM 272320Z 2800/2824 09003KT P6SM SCT150
     FM281500 13008KT P6SM SCT250=



000
FTUS44 KTSA 272320
TAFXNA
TAF
KXNA 272320Z 2800/2824 10005KT P6SM SCT150
     FM281500 16010KT P6SM SCT250=



000
FTUS44 KTSA 272320
TAFRVS
TAF
KRVS 272320Z 2800/2824 15005KT P6SM SCT150
     FM281500 18010G17KT P6SM SCT050 BKN250=



000
FTUS44 KTSA 272320
TAFMLC
TAF
KMLC 272320Z 2800/2824 13005KT P6SM SCT150
     FM281500 18010G17KT P6SM SCT250=



000
FTUS44 KTSA 272320
TAFXNA
TAF
KXNA 272320Z 2800/2824 10005KT P6SM SCT150
     FM281500 16010KT P6SM SCT250=



000
FTUS44 KTSA 272320
TAFFSM
TAF
KFSM 272320Z 2800/2824 09003KT P6SM SCT150
     FM281500 13008KT P6SM SCT250=



000
FTUS44 KTSA 272320
TAFRVS
TAF
KRVS 272320Z 2800/2824 15005KT P6SM SCT150
     FM281500 18010G17KT P6SM SCT050 BKN250=



000
FTUS44 KTSA 272320
TAFMLC
TAF
KMLC 272320Z 2800/2824 13005KT P6SM SCT150
     FM281500 18010G17KT P6SM SCT250=



000
FTUS44 KTSA 271720
TAFTUL
TAF
KTUL 271720Z 2718/2818 15007G19KT P6SM VCTS BKN050CB
      TEMPO 2718/2720 4SM TSRA BKN025CB
     FM272000 17010KT P6SM BKN050 BKN250
     FM280200 16008KT P6SM BKN250
     FM281500 18010G20KT P6SM BKN250=



000
FTUS44 KTSA 271720
TAFTUL
TAF
KTUL 271720Z 2718/2818 15007G19KT P6SM VCTS BKN050CB
      TEMPO 2718/2720 4SM TSRA BKN025CB
     FM272000 17010KT P6SM BKN050 BKN250
     FM280200 16008KT P6SM BKN250
     FM281500 18010G20KT P6SM BKN250=



000
FTUS44 KTSA 271720
TAFRVS
TAF
KRVS 271720Z 2718/2818 09012KT P6SM VCTS BKN050CB
      TEMPO 2718/2720 4SM TSRA BKN025CB
     FM272000 17010KT P6SM BKN050 BKN250
     FM280200 19005KT P6SM BKN250
     FM281500 18010G17KT P6SM BKN250=



000
FTUS44 KTSA 271720
TAFXNA
TAF
KXNA 271720Z 2718/2818 19007KT P6SM BKN080 BKN100
     FM280200 00000KT P6SM SCT250
     FM281500 16011KT P6SM BKN250=



000
FTUS44 KTSA 271720
TAFFYV
TAF
KFYV 271720Z 2718/2818 20006KT P6SM BKN080 BKN100
     FM280200 00000KT P6SM SCT250
     FM281500 16011KT P6SM BKN250=



000
FTUS44 KTSA 271720
TAFFSM
TAF
KFSM 271720Z 2718/2818 04003KT P6SM BKN080 BKN100
     FM280200 07003KT P6SM SCT250
     FM281500 13008KT P6SM BKN250=



000
FTUS44 KTSA 271720
TAFMLC
TAF
KMLC 271720Z 2718/2818 VRB03KT P6SM SCT070 BKN250
     FM280200 14003KT P6SM SCT250
     FM281500 18010G17KT P6SM BKN250=



000
FTUS44 KTSA 271720
TAFRVS
TAF
KRVS 271720Z 2718/2818 09012KT P6SM VCTS BKN050CB
      TEMPO 2718/2720 4SM TSRA BKN025CB
     FM272000 17010KT P6SM BKN050 BKN250
     FM280200 19005KT P6SM BKN250
     FM281500 18010G17KT P6SM BKN250=



000
FTUS44 KTSA 271720
TAFXNA
TAF
KXNA 271720Z 2718/2818 19007KT P6SM BKN080 BKN100
     FM280200 00000KT P6SM SCT250
     FM281500 16011KT P6SM BKN250=



000
FTUS44 KTSA 271720
TAFMLC
TAF
KMLC 271720Z 2718/2818 VRB03KT P6SM SCT070 BKN250
     FM280200 14003KT P6SM SCT250
     FM281500 18010G17KT P6SM BKN250=



000
FTUS44 KTSA 271720
TAFFYV
TAF
KFYV 271720Z 2718/2818 20006KT P6SM BKN080 BKN100
     FM280200 00000KT P6SM SCT250
     FM281500 16011KT P6SM BKN250=



000
FTUS44 KTSA 271720
TAFFSM
TAF
KFSM 271720Z 2718/2818 04003KT P6SM BKN080 BKN100
     FM280200 07003KT P6SM SCT250
     FM281500 13008KT P6SM BKN250=



000
FTUS44 KTSA 271645 AAB
TAFTUL
TAF AMD
KTUL 271645Z 2717/2812 36014G27KT 2SM TSRA BKN050CB
     FM271800 17010KT P6SM VCTS BKN050CB BKN250
     FM280200 16008KT P6SM BKN250=



000
FTUS44 KTSA 271530 AAA
TAFRVS
TAF AMD
KRVS 271530Z 2716/2812 36010G20KT P6SM VCTS SCT050CB BKN250
      TEMPO 2716/2718 3SM TSRA BKN050CB
     FM271800 17008KT P6SM SCT050 BKN250
     FM280200 14004KT P6SM BKN250=



000
FTUS44 KTSA 271529 AAA
TAFTUL
TAF AMD
KTUL 271529Z 2715/2812 36010G20KT P6SM VCTS SCT050CB BKN250
      TEMPO 2715/2717 3SM TSRA BKN050CB
     FM271700 17010KT P6SM BKN050 BKN250
     FM280200 16008KT P6SM BKN250=



000
FTUS44 KTSA 271120
TAFRVS
TAF
KRVS 271120Z 2712/2812 00000KT P6SM VCTS SCT090CB BKN250
     FM271600 17008KT P6SM SCT050 BKN250
     FM280200 14004KT P6SM BKN250=



000
FTUS44 KTSA 271120
TAFRVS
TAF
KRVS 271120Z 2712/2812 00000KT P6SM VCTS SCT090CB BKN250
     FM271600 17008KT P6SM SCT050 BKN250
     FM280200 14004KT P6SM BKN250=



000
FTUS44 KTSA 271120
TAFTUL
TAF
KTUL 271120Z 2712/2812 14005KT P6SM VCTS SCT090CB BKN250
     FM271600 17010KT P6SM SCT050 BKN250
     FM280200 16008KT P6SM BKN250=



000
FTUS44 KTSA 271120
TAFFYV
TAF
KFYV 271120Z 2712/2812 00000KT P6SM SCT250
     FM271400 17005KT P6SM SCT100 BKN250
     FM280200 00000KT P6SM SCT250=



000
FTUS44 KTSA 271120
TAFFYV
TAF
KFYV 271120Z 2712/2812 00000KT P6SM SCT250
     FM271400 17005KT P6SM SCT100 BKN250
     FM280200 00000KT P6SM SCT250=



000
FTUS44 KTSA 271120
TAFMLC
TAF
KMLC 271120Z 2712/2812 00000KT P6SM SCT250
     FM271500 18007KT P6SM FEW050 SCT250
     FM280200 14003KT P6SM SCT250=



000
FTUS44 KTSA 271120
TAFXNA
TAF
KXNA 271120Z 2712/2812 00000KT P6SM SCT250
     FM271400 17007KT P6SM SCT100 BKN250
     FM280200 VRB03KT P6SM SCT250=



000
FTUS44 KTSA 271120
TAFMLC
TAF
KMLC 271120Z 2712/2812 00000KT P6SM SCT250
     FM271500 18007KT P6SM FEW050 SCT250
     FM280200 14003KT P6SM SCT250=



000
FTUS44 KTSA 271120
TAFFSM
TAF
KFSM 271120Z 2712/2812 07005KT P6SM SCT250
     FM271500 09006KT P6SM FEW100 SCT250
     FM280200 07003KT P6SM SCT250=



000
FTUS44 KTSA 271120
TAFTUL
TAF
KTUL 271120Z 2712/2812 14005KT P6SM VCTS SCT090CB BKN250
     FM271600 17010KT P6SM SCT050 BKN250
     FM280200 16008KT P6SM BKN250=



000
FTUS44 KTSA 271120
TAFXNA
TAF
KXNA 271120Z 2712/2812 00000KT P6SM SCT250
     FM271400 17007KT P6SM SCT100 BKN250
     FM280200 VRB03KT P6SM SCT250=



000
FTUS44 KTSA 271120
TAFFSM
TAF
KFSM 271120Z 2712/2812 07005KT P6SM SCT250
     FM271500 09006KT P6SM FEW100 SCT250
     FM280200 07003KT P6SM SCT250=



000
FTUS44 KTSA 270520
TAFMLC
TAF
KMLC 270520Z 2706/2806 11004KT P6SM SKC
     FM271500 18006KT P6SM FEW050 SCT250
     FM280200 13003KT P6SM SCT250=



000
FTUS44 KTSA 270520
TAFFSM
TAF
KFSM 270520Z 2706/2806 00000KT P6SM SKC
     FM271500 11006KT P6SM SCT250
     FM280200 10003KT P6SM SCT250=



000
FTUS44 KTSA 270520
TAFRVS
TAF
KRVS 270520Z 2706/2806 00000KT P6SM SKC
     FM271500 17006KT P6SM FEW050 SCT250
     FM280200 16003KT P6SM BKN250=



000
FTUS44 KTSA 270520
TAFFYV
TAF
KFYV 270520Z 2706/2806 00000KT P6SM SKC
     FM271500 15005KT P6SM SCT250
     FM280200 00000KT P6SM SCT250=



000
FTUS44 KTSA 270520
TAFTUL
TAF
KTUL 270520Z 2706/2806 13005KT P6SM SCT250
     FM271500 17008KT P6SM FEW050 SCT250
     FM280200 15008KT P6SM BKN250=



000
FTUS44 KTSA 270520
TAFXNA
TAF
KXNA 270520Z 2706/2806 00000KT P6SM SKC
     FM271500 15005KT P6SM SCT250
     FM280200 VRB03KT P6SM SCT250=



000
FTUS44 KTSA 270520
TAFMLC
TAF
KMLC 270520Z 2706/2806 11004KT P6SM SKC
     FM271500 18006KT P6SM FEW050 SCT250
     FM280200 13003KT P6SM SCT250=



000
FTUS44 KTSA 270520
TAFRVS
TAF
KRVS 270520Z 2706/2806 00000KT P6SM SKC
     FM271500 17006KT P6SM FEW050 SCT250
     FM280200 16003KT P6SM BKN250=



000
FTUS44 KTSA 270520
TAFTUL
TAF
KTUL 270520Z 2706/2806 13005KT P6SM SCT250
     FM271500 17008KT P6SM FEW050 SCT250
     FM280200 15008KT P6SM BKN250=



000
FTUS44 KTSA 270520
TAFFYV
TAF
KFYV 270520Z 2706/2806 00000KT P6SM SKC
     FM271500 15005KT P6SM SCT250
     FM280200 00000KT P6SM SCT250=



000
FTUS44 KTSA 270520
TAFFSM
TAF
KFSM 270520Z 2706/2806 00000KT P6SM SKC
     FM271500 11006KT P6SM SCT250
     FM280200 10003KT P6SM SCT250=



000
FTUS44 KTSA 270520
TAFXNA
TAF
KXNA 270520Z 2706/2806 00000KT P6SM SKC
     FM271500 15005KT P6SM SCT250
     FM280200 VRB03KT P6SM SCT250=



000
FTUS44 KTSA 270151 CCA
TAFRVS
TAF COR
KRVS 270151Z 2700/2724 13006KT P6SM SKC
     FM270200 00000KT P6SM SKC
     FM271500 17006KT P6SM FEW050 SCT250=



000
FTUS44 KTSA 270151 CCA
TAFTUL
TAF COR
KTUL 270151Z 2700/2724 12008KT P6SM SCT050 BKN250
     FM270200 VRB03KT P6SM SKC
     FM271500 17008KT P6SM FEW050 SCT250=



000
FTUS44 KTSA 270151 CCA
TAFXNA
TAF COR
KXNA 270151Z 2700/2724 32004KT P6SM SKC
     FM270200 VRB02KT P6SM SKC
     FM271500 15005KT P6SM SCT250=



000
FTUS44 KTSA 270151 CCA
TAFFYV
TAF COR
KFYV 270151Z 2700/2724 25004KT P6SM SKC
     FM270200 00000KT P6SM SKC
     FM271500 15005KT P6SM SCT250=



000
FTUS44 KTSA 270151 CCA
TAFMLC
TAF COR
KMLC 270151Z 2700/2724 00000KT P6SM SKC
     FM271500 18006KT P6SM FEW050 SCT250=



000
FTUS44 KTSA 270151 CCA
TAFFSM
TAF COR
KFSM 270151Z 2700/2724 04005KT P6SM SKC
     FM270200 08003KT P6SM SKC
     FM271500 11006KT P6SM SCT250=



000
FTUS44 KTSA 262359
TAFXNA
TAF
KXNA 262359Z 2600/2624 VRB03KT P6SM SKC
     FM260200 00000KT P6SM SKC
     FM261500 29006KT P6SM SKC=



000
FTUS44 KTSA 262359
TAFFSM
TAF
KFSM 262359Z 2600/2624 07007KT P6SM SKC
     FM260600 05004KT P6SM SKC
     FM261800 02006KT P6SM SKC=



000
FTUS44 KTSA 262359
TAFTUL
TAF
KTUL 262359Z 2600/2624 11006KT P6SM SKC
     FM260500 17005KT P6SM SKC=



000
FTUS44 KTSA 262359
TAFFYV
TAF
KFYV 262359Z 2600/2624 07005KT P6SM SKC
     FM260200 00000KT P6SM SKC
     FM261500 28005KT P6SM SKC=



000
FTUS44 KTSA 262359
TAFMLC
TAF
KMLC 262359Z 2600/2624 VRB03KT P6SM SKC
     FM261500 22006KT P6SM SKC=



000
FTUS44 KTSA 262359
TAFRVS
TAF
KRVS 262359Z 2600/2624 15006KT P6SM SKC
     FM260200 00000KT P6SM SKC
     FM261500 17006KT P6SM SKC=



000
FTUS44 KTSA 262359
TAFXNA
TAF
KXNA 262359Z 2600/2624 VRB03KT P6SM SKC
     FM260200 00000KT P6SM SKC
     FM261500 29006KT P6SM SKC=



000
FTUS44 KTSA 262359
TAFRVS
TAF
KRVS 262359Z 2600/2624 15006KT P6SM SKC
     FM260200 00000KT P6SM SKC
     FM261500 17006KT P6SM SKC=



000
FTUS44 KTSA 262359
TAFMLC
TAF
KMLC 262359Z 2600/2624 VRB03KT P6SM SKC
     FM261500 22006KT P6SM SKC=



000
FTUS44 KTSA 262359
TAFFYV
TAF
KFYV 262359Z 2600/2624 07005KT P6SM SKC
     FM260200 00000KT P6SM SKC
     FM261500 28005KT P6SM SKC=



000
FTUS44 KTSA 262359
TAFTUL
TAF
KTUL 262359Z 2600/2624 11006KT P6SM SKC
     FM260500 17005KT P6SM SKC=



000
FTUS44 KTSA 262359
TAFFSM
TAF
KFSM 262359Z 2600/2624 07007KT P6SM SKC
     FM260600 05004KT P6SM SKC
     FM261800 02006KT P6SM SKC=



000
FTUS44 KTSA 262320
TAFXNA
TAF
KXNA 262320Z 2700/2724 32004KT P6SM SKC
     FM270200 VRB02KT P6SM SKC
     FM271500 15005KT P6SM SCT250=



000
FTUS44 KTSA 262320
TAFFYV
TAF
KFYV 262320Z 2700/2724 25004KT P6SM SKC
     FM270200 00000KT P6SM SKC
     FM271500 15005KT P6SM SCT250=



000
FTUS44 KTSA 262320
TAFMLC
TAF
KMLC 262320Z 2700/2724 00000KT P6SM SKC
     FM271500 18006KT P6SM FEW050 SCT250=



000
FTUS44 KTSA 262320
TAFTUL
TAF
KTUL 262320Z 2700/2724 12008KT P6SM SCT050 BKN250
     FM270200 VRB03KT P6SM SKC
     FM271500 17008KT P6SM FEW050 SCT250=



000
FTUS44 KTSA 262320
TAFRVS
TAF
KRVS 262320Z 2700/2724 13006KT P6SM SKC
     FM270200 00000KT P6SM SKC
     FM271500 17006KT P6SM FEW050 SCT250=



000
FTUS44 KTSA 262320
TAFFSM
TAF
KFSM 262320Z 2700/2724 04005KT P6SM SKC
     FM270200 08003KT P6SM SKC
     FM271500 11006KT P6SM SCT250=



000
FTUS44 KTSA 261720
TAFXNA
TAF
KXNA 261720Z 2618/2718 VRB03KT P6SM SKC
     FM270200 VRB02KT P6SM SKC
     FM271500 15005KT P6SM SCT250=



000
FTUS44 KTSA 261720
TAFTUL
TAF
KTUL 261720Z 2618/2718 17004KT P6SM BKN050
     FM270200 VRB03KT P6SM SKC
     FM271500 18008KT P6SM SCT250=



000
FTUS44 KTSA 261720
TAFMLC
TAF
KMLC 261720Z 2618/2718 22007KT P6SM SKC
     FM270200 00000KT P6SM SKC
     FM271500 17006KT P6SM SCT250=



000
FTUS44 KTSA 261720
TAFRVS
TAF
KRVS 261720Z 2618/2718 21004KT P6SM SKC
     FM270200 00000KT P6SM SKC
     FM271500 17006KT P6SM SCT250=



000
FTUS44 KTSA 261720
TAFFYV
TAF
KFYV 261720Z 2618/2718 VRB03KT P6SM SKC
     FM270200 00000KT P6SM SKC
     FM271500 15005KT P6SM SCT250=



000
FTUS44 KTSA 261720
TAFFSM
TAF
KFSM 261720Z 2618/2718 05003KT P6SM SKC
     FM270200 08003KT P6SM SKC
     FM271500 11006KT P6SM SCT250=



000
FTUS44 KTSA 261720
TAFTUL
TAF
KTUL 261720Z 2618/2718 17004KT P6SM BKN050
     FM270200 VRB03KT P6SM SKC
     FM271500 18008KT P6SM SCT250=



000
FTUS44 KTSA 261720
TAFMLC
TAF
KMLC 261720Z 2618/2718 22007KT P6SM SKC
     FM270200 00000KT P6SM SKC
     FM271500 17006KT P6SM SCT250=



000
FTUS44 KTSA 261720
TAFRVS
TAF
KRVS 261720Z 2618/2718 21004KT P6SM SKC
     FM270200 00000KT P6SM SKC
     FM271500 17006KT P6SM SCT250=



000
FTUS44 KTSA 261720
TAFFYV
TAF
KFYV 261720Z 2618/2718 VRB03KT P6SM SKC
     FM270200 00000KT P6SM SKC
     FM271500 15005KT P6SM SCT250=



000
FTUS44 KTSA 261720
TAFXNA
TAF
KXNA 261720Z 2618/2718 VRB03KT P6SM SKC
     FM270200 VRB02KT P6SM SKC
     FM271500 15005KT P6SM SCT250=



000
FTUS44 KTSA 261720
TAFFSM
TAF
KFSM 261720Z 2618/2718 05003KT P6SM SKC
     FM270200 08003KT P6SM SKC
     FM271500 11006KT P6SM SCT250=



000
FTUS44 KTSA 261120
TAFMLC
TAF
KMLC 261120Z 2612/2712 00000KT P6SM FEW250
     FM261500 VRB04KT P6SM FEW250
     FM270200 00000KT P6SM SKC=



000
FTUS44 KTSA 261120
TAFFYV
TAF
KFYV 261120Z 2612/2712 00000KT P6SM SKC
     FM261500 35005KT P6SM SKC
     FM270200 00000KT P6SM SKC=



000
FTUS44 KTSA 261120
TAFRVS
TAF
KRVS 261120Z 2612/2712 00000KT P6SM FEW250
      TEMPO 2612/2614 2SM BR
     FM261500 14006KT P6SM FEW250
     FM270200 00000KT P6SM SKC=



000
FTUS44 KTSA 261120
TAFFYV
TAF
KFYV 261120Z 2612/2712 00000KT P6SM SKC
     FM261500 35005KT P6SM SKC
     FM270200 00000KT P6SM SKC=



000
FTUS44 KTSA 261120
TAFRVS
TAF
KRVS 261120Z 2612/2712 00000KT P6SM FEW250
      TEMPO 2612/2614 2SM BR
     FM261500 14006KT P6SM FEW250
     FM270200 00000KT P6SM SKC=



000
FTUS44 KTSA 261120
TAFTUL
TAF
KTUL 261120Z 2612/2712 15006KT P6SM FEW250=



000
FTUS44 KTSA 261120
TAFXNA
TAF
KXNA 261120Z 2612/2712 00000KT P6SM SKC
     FM261500 35006KT P6SM SKC
     FM270200 VRB02KT P6SM SKC=



000
FTUS44 KTSA 261120
TAFFSM
TAF
KFSM 261120Z 2612/2712 00000KT P6SM SKC
     FM261800 02006KT P6SM SKC
     FM270200 08003KT P6SM SKC=



000
FTUS44 KTSA 261120
TAFXNA
TAF
KXNA 261120Z 2612/2712 00000KT P6SM SKC
     FM261500 35006KT P6SM SKC
     FM270200 VRB02KT P6SM SKC=



000
FTUS44 KTSA 261120
TAFMLC
TAF
KMLC 261120Z 2612/2712 00000KT P6SM FEW250
     FM261500 VRB04KT P6SM FEW250
     FM270200 00000KT P6SM SKC=



000
FTUS44 KTSA 261120
TAFFSM
TAF
KFSM 261120Z 2612/2712 00000KT P6SM SKC
     FM261800 02006KT P6SM SKC
     FM270200 08003KT P6SM SKC=



000
FTUS44 KTSA 261120
TAFTUL
TAF
KTUL 261120Z 2612/2712 15006KT P6SM FEW250=



000
FTUS44 KTSA 261017 AAA
TAFRVS
TAF AMD
KRVS 261017Z 2610/2706 00000KT P6SM SKC
      TEMPO 2610/2614 2SM BR
     FM261500 17006KT P6SM SKC
     FM270200 00000KT P6SM SKC=



000
FTUS44 KTSA 261017 AAA
TAFRVS
TAF AMD
KRVS 261017Z 2610/2706 00000KT P6SM SKC
      TEMPO 2610/2614 2SM BR
     FM261500 17006KT P6SM SKC
     FM270200 00000KT P6SM SKC=



000
FTUS44 KTSA 260520
TAFFYV
TAF
KFYV 260520Z 2606/2706 00000KT P6SM SKC
     FM261500 29005KT P6SM SKC
     FM270200 00000KT P6SM SKC=



000
FTUS44 KTSA 260520
TAFFSM
TAF
KFSM 260520Z 2606/2706 00000KT P6SM SKC
     FM261800 34006KT P6SM SKC
     FM270200 02003KT P6SM SKC=



000
FTUS44 KTSA 260520
TAFTUL
TAF
KTUL 260520Z 2606/2706 15006KT P6SM SKC=



000
FTUS44 KTSA 260520
TAFFYV
TAF
KFYV 260520Z 2606/2706 00000KT P6SM SKC
     FM261500 29005KT P6SM SKC
     FM270200 00000KT P6SM SKC=



000
FTUS44 KTSA 260520
TAFMLC
TAF
KMLC 260520Z 2606/2706 00000KT P6SM SKC
     FM261500 23006KT P6SM SKC
     FM270200 00000KT P6SM SKC=



000
FTUS44 KTSA 260520
TAFMLC
TAF
KMLC 260520Z 2606/2706 00000KT P6SM SKC
     FM261500 23006KT P6SM SKC
     FM270200 00000KT P6SM SKC=



000
FTUS44 KTSA 260520
TAFRVS
TAF
KRVS 260520Z 2606/2706 00000KT P6SM SKC
     FM261500 17006KT P6SM SKC
     FM270200 00000KT P6SM SKC=



000
FTUS44 KTSA 260520
TAFXNA
TAF
KXNA 260520Z 2606/2706 00000KT P6SM SKC
     FM261500 29006KT P6SM SKC
     FM270200 VRB03KT P6SM SKC=



000
FTUS44 KTSA 260520
TAFRVS
TAF
KRVS 260520Z 2606/2706 00000KT P6SM SKC
     FM261500 17006KT P6SM SKC
     FM270200 00000KT P6SM SKC=



000
FTUS44 KTSA 260520
TAFFSM
TAF
KFSM 260520Z 2606/2706 00000KT P6SM SKC
     FM261800 34006KT P6SM SKC
     FM270200 02003KT P6SM SKC=



000
FTUS44 KTSA 260520
TAFXNA
TAF
KXNA 260520Z 2606/2706 00000KT P6SM SKC
     FM261500 29006KT P6SM SKC
     FM270200 VRB03KT P6SM SKC=



000
FTUS44 KTSA 260520
TAFTUL
TAF
KTUL 260520Z 2606/2706 15006KT P6SM SKC=



000
FTUS44 KTSA 260037 CCA
TAFRVS
TAF COR
KRVS 260037Z 2601/2624 12008KT P6SM SKC
     FM260200 00000KT P6SM SKC
     FM261500 17006KT P6SM SKC=



000
FTUS44 KTSA 260037 CCA
TAFRVS
TAF COR
KRVS 260037Z 2601/2624 12008KT P6SM SKC
     FM260200 00000KT P6SM SKC
     FM261500 17006KT P6SM SKC=



000
FTUS44 KTSA 260037 CCA
TAFFYV
TAF COR
KFYV 260037Z 2601/2624 07003KT P6SM SKC
     FM260200 00000KT P6SM SKC
     FM261500 29005KT P6SM SKC=



000
FTUS44 KTSA 260037 CCA
TAFTUL
TAF COR
KTUL 260037Z 2601/2624 09006KT P6SM SKC
     FM260200 VRB03KT P6SM SKC
     FM261500 17006KT P6SM SKC=



000
FTUS44 KTSA 260037 CCA
TAFMLC
TAF COR
KMLC 260037Z 2601/2624 10004KT P6SM SKC
     FM260400 00000KT P6SM SKC
     FM261500 23006KT P6SM SKC=



000
FTUS44 KTSA 260037 CCA
TAFXNA
TAF COR
KXNA 260037Z 2601/2624 01003KT P6SM SKC
     FM260200 00000KT P6SM SKC
     FM261500 29006KT P6SM SKC=



000
FTUS44 KTSA 260037 CCA
TAFTUL
TAF COR
KTUL 260037Z 2601/2624 09006KT P6SM SKC
     FM260200 VRB03KT P6SM SKC
     FM261500 17006KT P6SM SKC=



000
FTUS44 KTSA 260037 CCA
TAFFSM
TAF COR
KFSM 260037Z 2601/2624 05003KT P6SM SKC
     FM260600 05004KT P6SM SKC
     FM261800 02006KT P6SM SKC=



000
FTUS44 KTSA 260037 CCA
TAFMLC
TAF COR
KMLC 260037Z 2601/2624 10004KT P6SM SKC
     FM260400 00000KT P6SM SKC
     FM261500 23006KT P6SM SKC=



000
FTUS44 KTSA 260037 CCA
TAFFYV
TAF COR
KFYV 260037Z 2601/2624 07003KT P6SM SKC
     FM260200 00000KT P6SM SKC
     FM261500 29005KT P6SM SKC=



000
FTUS44 KTSA 260037 CCA
TAFXNA
TAF COR
KXNA 260037Z 2601/2624 01003KT P6SM SKC
     FM260200 00000KT P6SM SKC
     FM261500 29006KT P6SM SKC=



000
FTUS44 KTSA 260037 CCA
TAFFSM
TAF COR
KFSM 260037Z 2601/2624 05003KT P6SM SKC
     FM260600 05004KT P6SM SKC
     FM261800 02006KT P6SM SKC=



    US Dept of Commerce
    National Oceanic and Atmospheric Administration
    National Weather Service
    1325 East West Highway
    Silver Spring, MD 20910
    Page Author: NWS Internet Services Team
Disclaimer
Information Quality
Credits
Glossary
Privacy Policy
Freedom of Information Act (FOIA)
About Us
Career Opportunities